Time;durP1;ratioP1;P1;durP2;ratioP2;P2;SDS_P1;SDS_P2;PMS_P1;PMS_P2;Temp;Humidity;BMP_temperature;BMP_pressure;BME280_temperature;BME280_humidity;BME280_pressure;Samples;Min_cycle;Max_cycle;Signal;HPM_P1;HPM_P2
2022/06/18 00:01:46;;;;;;;1.50;1.00;;;;;;;19.17;49.72;100569.63;4397323;32;34412;-85
2022/06/18 00:04:21;;;;;;;2.92;1.23;;;;;;;19.48;48.82;100566.72;4411023;32;34023;-87
2022/06/18 00:06:52;;;;;;;1.77;0.77;;;;;;;19.44;48.71;100566.06;4395206;32;33428;-87
2022/06/18 00:09:23;;;;;;;4.62;1.00;;;;;;;19.66;48.15;100569.03;4410204;32;33394;-87
2022/06/18 00:14:40;;;;;;;3.35;0.95;;;;;;;19.24;49.28;100575.44;4404823;32;33714;-87
2022/06/18 00:17:15;;;;;;;0.85;0.80;;;;;;;19.33;49.30;100576.66;4410323;32;34965;-87
2022/06/18 00:19:46;;;;;;;1.37;0.85;;;;;;;19.29;49.53;100575.16;4406023;32;33826;-86
2022/06/18 00:22:16;;;;;;;2.00;1.15;;;;;;;19.25;49.76;100576.31;4409897;32;34480;-88
2022/06/18 00:24:44;;;;;;;1.20;1.10;;;;;;;19.16;50.13;100575.97;4385579;32;33155;-87
2022/06/18 00:27:16;;;;;;;4.97;1.50;;;;;;;18.85;50.83;100576.31;4410253;32;32372;-88
2022/06/18 00:29:48;;;;;;;1.37;1.10;;;;;;;19.02;50.40;100572.50;4410063;32;33990;-87
2022/06/18 00:32:16;;;;;;;2.12;1.33;;;;;;;18.97;50.22;100578.16;4409990;32;33099;-88
2022/06/18 00:34:45;;;;;;;1.70;1.00;;;;;;;18.90;50.50;100582.22;4410029;32;33236;-88
2022/06/18 00:37:17;;;;;;;1.45;1.12;;;;;;;18.91;50.56;100575.87;4410277;32;34540;-88
2022/06/18 00:39:45;;;;;;;1.30;0.95;;;;;;;18.95;50.94;100574.72;4410244;32;34259;-87
2022/06/18 00:42:23;;;;;;;2.28;1.10;;;;;;;18.92;50.75;100574.91;4409129;32;33711;-88
2022/06/18 00:44:54;;;;;;;1.70;1.12;;;;;;;18.85;50.97;100576.31;4397681;32;32406;-87
2022/06/18 00:47:39;;;;;;;1.73;1.33;;;;;;;18.84;51.12;100574.56;4401476;32;33955;-88
2022/06/18 00:50:16;;;;;;;1.08;0.98;;;;;;;18.75;51.35;100581.38;4397383;32;33589;-87
2022/06/18 00:53:08;;;;;;;2.05;1.00;;;;;;;18.58;51.79;100577.09;4396785;32;34287;-87
2022/06/18 00:56:05;;;;;;;3.72;1.20;;;;;;;18.27;53.15;100577.31;4392940;32;32670;-88
2022/06/18 00:58:34;;;;;;;3.03;1.48;;;;;;;18.24;53.15;100577.53;4411178;32;34630;-88
2022/06/18 01:01:11;;;;;;;1.15;0.95;;;;;;;18.47;52.37;100571.59;4388536;32;34170;-88
2022/06/18 01:03:43;;;;;;;1.12;0.90;;;;;;;18.43;52.74;100580.75;4400215;32;33696;-87
2022/06/18 01:06:16;;;;;;;0.88;0.88;;;;;;;18.52;52.51;100572.16;4396913;32;34088;-88
2022/06/18 01:08:45;;;;;;;1.55;1.20;;;;;;;18.33;53.56;100580.50;4387153;32;34063;-87
2022/06/18 01:11:19;;;;;;;1.02;0.90;;;;;;;18.42;53.08;100584.41;4388907;32;33942;-87
2022/06/18 01:13:48;;;;;;;1.67;1.30;;;;;;;18.07;53.25;100578.59;4389725;32;33983;-87
2022/06/18 01:16:18;;;;;;;1.30;1.17;;;;;;;18.12;53.45;100580.00;4384205;32;33099;-86
2022/06/18 01:18:47;;;;;;;1.20;1.10;;;;;;;17.98;53.47;100576.47;4387367;32;33551;-87
2022/06/18 01:21:25;;;;;;;3.45;1.20;;;;;;;18.21;53.10;100577.72;4400370;32;34515;-87
2022/06/18 01:24:12;;;;;;;1.20;1.08;;;;;;;18.18;53.29;100573.41;4406684;32;33213;-87
2022/06/18 01:26:43;;;;;;;1.30;1.17;;;;;;;18.30;52.93;100577.16;4410211;32;32997;-87
2022/06/18 01:29:12;;;;;;;2.35;1.55;;;;;;;18.34;53.27;100584.03;4400545;32;33399;-87
2022/06/18 01:31:41;;;;;;;1.05;0.95;;;;;;;18.37;53.55;100575.78;4398756;32;33401;-86
2022/06/18 01:34:09;;;;;;;4.03;1.20;;;;;;;18.40;53.38;100578.28;4399193;32;33133;-86
2022/06/18 01:36:38;;;;;;;1.62;0.80;;;;;;;18.31;54.17;100571.69;4401952;32;33453;-85
2022/06/18 01:39:15;;;;;;;1.58;1.10;;;;;;;18.47;53.39;100565.34;4377659;32;34082;-87
2022/06/18 01:41:52;;;;;;;1.40;1.23;;;;;;;18.49;53.66;100563.47;4381459;32;33399;-87
2022/06/18 01:44:45;;;;;;;1.23;1.00;;;;;;;18.31;54.42;100563.66;4394599;32;32791;-87
2022/06/18 01:47:17;;;;;;;2.00;1.50;;;;;;;18.40;54.45;100565.75;4392479;32;32498;-87
2022/06/18 01:49:59;;;;;;;1.25;1.15;;;;;;;18.22;54.99;100552.69;4409920;32;34363;-87
2022/06/18 01:52:31;;;;;;;1.52;0.90;;;;;;;18.31;54.69;100561.00;4409382;32;32476;-86
2022/06/18 01:55:05;;;;;;;1.70;1.25;;;;;;;18.46;53.74;100556.47;4397238;32;33413;-89
2022/06/18 01:57:37;;;;;;;2.30;1.35;;;;;;;18.51;53.14;100558.84;4397211;32;33129;-89
2022/06/18 02:00:13;;;;;;;1.23;0.90;;;;;;;18.79;51.83;100564.16;4409823;32;33676;-87
2022/06/18 02:02:45;;;;;;;2.12;1.10;;;;;;;18.50;53.14;100562.50;4404740;32;33597;-87
2022/06/18 02:05:15;;;;;;;2.35;1.50;;;;;;;18.52;53.24;100564.12;4408626;32;33899;-87
2022/06/18 02:07:44;;;;;;;2.35;1.10;;;;;;;18.42;53.49;100554.97;4404078;32;33346;-90
2022/06/18 02:10:17;;;;;;;1.35;1.23;;;;;;;18.34;54.22;100551.94;4394818;32;32893;-89
2022/06/18 02:12:45;;;;;;;1.30;0.90;;;;;;;18.35;54.18;100554.50;4398200;32;33189;-90
2022/06/18 02:15:19;;;;;;;1.80;1.37;;;;;;;18.41;53.83;100553.25;4409508;32;33318;-89
2022/06/18 02:17:48;;;;;;;2.15;1.15;;;;;;;18.39;53.77;100556.03;4397190;32;32764;-90
2022/06/18 02:20:20;;;;;;;2.45;0.90;;;;;;;18.34;54.32;100551.94;4396882;32;33148;-90
2022/06/18 02:22:54;;;;;;;3.83;1.33;;;;;;;18.44;54.14;100553.06;4406793;32;33271;-88
2022/06/18 02:25:25;;;;;;;2.23;2.03;;;;;;;18.54;53.62;100550.66;4393895;32;33574;-88
2022/06/18 02:27:57;;;;;;;2.90;1.12;;;;;;;18.43;53.75;100551.34;4394461;32;35695;-87
2022/06/18 02:30:29;;;;;;;1.17;1.00;;;;;;;18.50;53.41;100554.47;4394032;32;32578;-88
2022/06/18 02:33:08;;;;;;;0.57;0.57;;;;;;;18.31;54.24;100552.97;4396716;32;32503;-88
2022/06/18 02:35:36;;;;;;;1.90;1.33;;;;;;;18.42;53.99;100546.97;4395623;32;32930;-88
2022/06/18 02:38:16;;;;;;;1.17;1.08;;;;;;;18.36;53.80;100547.34;4387394;32;32454;-88
2022/06/18 02:40:46;;;;;;;1.42;1.30;;;;;;;18.25;53.84;100547.16;4396455;32;33572;-86
2022/06/18 02:43:16;;;;;;;2.30;1.00;;;;;;;18.20;53.88;100549.28;4395084;32;33276;-87
2022/06/18 02:45:45;;;;;;;1.62;1.33;;;;;;;18.24;53.67;100553.47;4396013;32;32837;-87
2022/06/18 02:48:14;;;;;;;1.23;1.12;;;;;;;17.98;54.42;100555.97;4396513;32;33590;-87
2022/06/18 02:50:43;;;;;;;2.37;1.15;;;;;;;18.04;53.98;100560.06;4393399;32;33251;-87
2022/06/18 02:53:12;;;;;;;1.75;1.33;;;;;;;17.95;54.25;100549.97;4395781;32;33993;-87
2022/06/18 02:55:47;;;;;;;1.52;0.90;;;;;;;18.01;54.21;100555.78;4393751;32;33508;-87
2022/06/18 02:58:19;;;;;;;1.42;1.15;;;;;;;17.82;55.10;100550.72;4393469;32;32718;-87
2022/06/18 03:00:53;;;;;;;2.00;1.10;;;;;;;17.86;55.06;100554.06;4398089;32;34385;-87
2022/06/18 03:03:24;;;;;;;1.60;1.17;;;;;;;17.92;55.02;100557.22;4411030;32;33516;-87
2022/06/18 03:05:53;;;;;;;1.15;0.90;;;;;;;17.93;55.10;100555.41;4383443;32;33697;-87
2022/06/18 03:08:22;;;;;;;3.12;1.48;;;;;;;17.96;55.36;100555.22;4383216;32;32483;-88
2022/06/18 03:13:51;;;;;;;2.35;1.33;;;;;;;17.90;55.71;100553.78;4411236;32;34027;-88
2022/06/18 03:16:21;;;;;;;2.78;1.17;;;;;;;17.94;55.49;100551.75;4407575;32;32887;-88
2022/06/18 03:18:54;;;;;;;4.22;1.40;;;;;;;18.02;55.42;100554.81;4408923;32;33531;-88
2022/06/18 03:21:37;;;;;;;2.25;1.37;;;;;;;18.00;55.91;100553.22;4409767;32;33642;-89
2022/06/18 03:24:05;;;;;;;2.28;1.30;;;;;;;18.14;55.47;100553.22;4407298;32;33782;-89
2022/06/18 03:26:36;;;;;;;2.33;1.08;;;;;;;18.20;55.28;100562.66;4396135;32;34034;-89
2022/06/18 03:29:08;;;;;;;4.72;1.27;;;;;;;18.10;55.88;100562.37;4408758;32;32399;-89
2022/06/18 03:31:37;;;;;;;2.20;1.15;;;;;;;18.14;55.65;100562.09;4407961;32;33479;-89
2022/06/18 03:34:06;;;;;;;1.17;1.08;;;;;;;18.09;55.71;100566.84;4409311;32;34816;-90
2022/06/18 03:36:51;;;;;;;2.80;1.75;;;;;;;18.11;56.08;100564.94;4399720;32;33328;-89
2022/06/18 03:39:20;;;;;;;2.30;1.65;;;;;;;18.16;56.09;100570.84;4385118;32;33974;-90
2022/06/18 03:41:51;;;;;;;1.80;1.42;;;;;;;18.25;55.71;100565.87;4409225;32;33936;-89
2022/06/18 03:44:20;;;;;;;3.05;1.08;;;;;;;18.25;55.74;100565.87;4397000;32;34235;-90
2022/06/18 03:47:10;;;;;;;2.42;1.33;;;;;;;18.20;56.13;100568.00;4387587;32;31394;-90
2022/06/18 03:50:18;;;;;;;1.55;1.15;;;;;;;18.08;56.56;100557.09;4390622;32;32089;-90
2022/06/18 03:53:12;;;;;;;3.17;1.48;;;;;;;18.19;56.23;100566.28;4393590;32;33850;-90
2022/06/18 03:55:52;;;;;;;2.80;1.70;;;;;;;18.19;56.57;100563.59;4398326;32;32862;-93
2022/06/18 03:58:35;;;;;;;2.17;1.27;;;;;;;18.40;55.96;100562.22;4368857;32;32525;-88
2022/06/18 04:01:05;;;;;;;1.87;1.48;;;;;;;18.62;56.24;100567.91;4380873;32;31958;-88
2022/06/18 04:03:34;;;;;;;2.60;1.70;;;;;;;18.58;56.01;100566.41;4394940;32;32737;-88
2022/06/18 04:06:03;;;;;;;1.92;1.35;;;;;;;18.76;55.72;100568.87;4374761;32;32672;-88
2022/06/18 04:08:37;;;;;;;2.92;1.30;;;;;;;19.00;53.91;100561.91;4391471;32;32700;-89
2022/06/18 04:11:05;;;;;;;1.42;1.30;;;;;;;19.25;54.28;100562.94;4381668;32;33467;-91
2022/06/18 04:13:48;;;;;;;;;;;;;;;19.37;53.45;100567.44;4389704;32;32948;-92
2022/06/18 04:16:31;;;;;;;1.25;1.10;;;;;;;19.48;52.12;100567.56;4400705;32;33684;-92
2022/06/18 04:19:14;;;;;;;6.18;1.67;;;;;;;19.67;52.04;100562.69;4396775;32;34499;-91
2022/06/18 04:22:09;;;;;;;1.58;1.12;;;;;;;19.99;52.43;100567.62;4404267;32;34119;-92
2022/06/18 04:24:51;;;;;;;;;;;;;;;20.01;52.83;100560.31;4350908;32;33502;-92
2022/06/18 04:27:43;;;;;;;3.53;1.25;;;;;;;20.20;51.67;100565.22;4380504;32;33263;-91
2022/06/18 04:30:28;;;;;;;1.62;1.20;;;;;;;20.12;50.69;100563.09;4382414;32;32969;-91
2022/06/18 04:33:14;;;;;;;1.67;1.33;;;;;;;20.19;50.35;100564.38;4420116;32;32529;-90
2022/06/18 04:35:54;;;;;;;;;;;;;;;20.55;50.17;100564.53;4393475;32;33943;-89
2022/06/18 04:38:26;;;;;;;1.20;1.05;;;;;;;20.89;49.83;100560.22;4393597;32;33217;-89
2022/06/18 04:41:15;;;;;;;1.85;1.20;;;;;;;21.06;49.50;100570.53;4395815;32;33232;-90
2022/06/18 04:44:17;;;;;;;1.90;1.35;;;;;;;21.30;49.16;100575.87;4389197;32;33370;-90
2022/06/18 04:47:26;;;;;;;4.93;1.27;;;;;;;20.96;48.83;100572.22;4381632;32;33384;-91
2022/06/18 04:50:35;;;;;;;3.25;1.35;;;;;;;21.28;48.31;100571.63;4389031;32;34686;-90
2022/06/18 04:53:28;;;;;;;2.10;1.30;;;;;;;21.51;47.99;100576.13;4393192;32;33694;-90
2022/06/18 04:56:01;;;;;;;1.45;1.27;;;;;;;21.79;47.36;100576.66;4394975;32;32177;-89
2022/06/18 04:58:45;;;;;;;1.87;1.60;;;;;;;22.23;47.04;100579.41;4385391;32;35302;-87
2022/06/18 05:01:15;;;;;;;1.52;0.93;;;;;;;22.27;47.21;100582.72;4370408;32;33921;-88
2022/06/18 05:03:46;;;;;;;3.53;1.30;;;;;;;22.46;46.16;100574.88;4392095;32;34605;-91
2022/06/18 05:06:38;;;;;;;1.20;1.13;;;;;;;22.48;47.09;100580.13;4380143;32;32165;-92
2022/06/18 05:09:42;;;;;;;3.55;0.95;;;;;;;22.61;46.55;100578.16;4386899;32;33486;-90
2022/06/18 05:12:15;;;;;;;3.37;1.42;;;;;;;22.50;46.54;100583.53;4385153;32;33929;-92
2022/06/18 05:17:33;;;;;;;4.03;1.20;;;;;;;22.63;47.79;100581.56;4384929;32;32676;-89
2022/06/18 05:20:12;;;;;;;2.75;1.70;;;;;;;22.90;47.37;100580.31;4368591;32;32788;-87
2022/06/18 05:25:28;;;;;;;3.08;1.60;;;;;;;23.06;45.33;100583.44;4395315;32;34276;-87
2022/06/18 05:27:58;;;;;;;3.17;1.50;;;;;;;23.10;44.10;100590.28;4371821;32;32620;-88
2022/06/18 05:30:28;;;;;;;2.30;1.42;;;;;;;23.16;44.05;100589.75;4372129;32;33511;-88
2022/06/18 05:32:57;;;;;;;1.58;1.42;;;;;;;23.51;44.35;100594.88;4367556;32;33674;-88
2022/06/18 05:35:26;;;;;;;2.87;1.65;;;;;;;23.88;44.04;100596.25;4369405;32;32594;-88
2022/06/18 05:37:55;;;;;;;4.05;1.83;;;;;;;23.83;42.89;100593.09;4378815;32;32389;-88
2022/06/18 05:40:23;;;;;;;5.78;1.70;;;;;;;24.18;42.47;100582.78;4384681;32;33599;-87
2022/06/18 05:42:56;;;;;;;3.37;1.40;;;;;;;24.33;42.05;100590.53;4389386;32;133917;-88
2022/06/18 05:45:32;;;;;;;1.92;1.62;;;;;;;24.48;42.58;100597.28;4371444;32;33171;-88
2022/06/18 05:48:04;;;;;;;2.65;1.95;;;;;;;24.19;42.85;100591.75;4381348;32;33014;-89
2022/06/18 05:50:34;;;;;;;1.67;1.37;;;;;;;24.40;41.84;100600.69;4396770;32;33650;-87
2022/06/18 05:53:09;;;;;;;3.95;1.62;;;;;;;24.50;41.58;100600.72;4367925;32;33439;-87
2022/06/18 05:55:38;;;;;;;1.67;1.55;;;;;;;24.48;42.50;100608.06;4384593;32;32560;-88
2022/06/18 05:58:11;;;;;;;3.42;1.90;;;;;;;24.16;41.00;100606.34;4371387;32;31968;-88
2022/06/18 06:00:41;;;;;;;5.97;1.92;;;;;;;24.80;41.36;100601.62;4373166;32;33784;-90
2022/06/18 06:03:10;;;;;;;3.25;2.05;;;;;;;24.94;42.80;100595.81;4371040;32;33176;-87
2022/06/18 06:05:39;;;;;;;2.83;1.60;;;;;;;24.99;40.98;100598.97;4388010;32;33293;-88
2022/06/18 06:08:12;;;;;;;3.53;1.83;;;;;;;24.92;41.67;100598.66;4374588;32;32581;-89
2022/06/18 06:13:35;;;;;;;1.73;1.27;;;;;;;25.01;41.62;100602.38;4391931;32;32940;-89
2022/06/18 06:16:09;;;;;;;2.67;1.73;;;;;;;25.09;40.06;100594.44;4378753;32;32738;-89
2022/06/18 06:21:15;;;;;;;2.20;1.70;;;;;;;25.70;36.35;100588.72;4392927;32;34058;-84
2022/06/18 06:23:52;;;;;;;2.53;1.87;;;;;;;25.75;36.92;100591.88;4400703;32;34819;-84
2022/06/18 06:26:28;;;;;;;4.43;1.85;;;;;;;25.63;36.10;100598.41;4389637;32;32821;-84
2022/06/18 06:28:55;;;;;;;1.70;1.60;;;;;;;26.08;36.51;100597.78;4387720;32;33371;-84
2022/06/18 06:31:23;;;;;;;3.50;1.90;;;;;;;25.95;35.04;100592.66;4402043;32;32723;-85
2022/06/18 06:33:51;;;;;;;3.40;1.80;;;;;;;26.13;35.61;100594.62;4400957;32;34037;-82
2022/06/18 06:36:20;;;;;;;2.30;1.50;;;;;;;26.32;34.33;100599.97;4410775;32;33793;-83
2022/06/18 06:38:49;;;;;;;2.95;2.00;;;;;;;26.54;33.92;100596.03;4398267;32;32732;-83
2022/06/18 06:41:22;;;;;;;1.58;1.48;;;;;;;26.69;35.08;100599.09;4396633;32;33145;-84
2022/06/18 06:43:52;;;;;;;4.05;1.60;;;;;;;26.79;33.79;100598.03;4397848;32;30758;-83
2022/06/18 06:46:29;;;;;;;1.70;1.60;;;;;;;26.75;34.22;100591.19;4401917;32;33070;-85
2022/06/18 06:49:00;;;;;;;1.83;1.73;;;;;;;27.06;34.62;100604.38;4388881;32;31153;-84
2022/06/18 06:51:32;;;;;;;3.03;1.80;;;;;;;26.99;33.62;100597.88;4387494;32;32860;-85
2022/06/18 06:54:06;;;;;;;2.35;1.75;;;;;;;27.16;33.58;100598.94;4387620;32;32504;-85
2022/06/18 06:59:29;;;;;;;18.35;4.22;;;;;;;27.31;33.55;100592.81;4413391;32;33245;-85
2022/06/18 07:01:58;;;;;;;5.57;2.12;;;;;;;27.26;34.92;100595.16;4398886;32;33908;-84
2022/06/18 07:04:33;;;;;;;2.45;2.00;;;;;;;27.33;33.62;100594.50;4405713;32;34433;-84
2022/06/18 07:07:05;;;;;;;;;;;;;;;27.36;32.71;100595.06;4398695;32;34245;-84
2022/06/18 07:09:33;;;;;;;2.67;2.47;;;;;;;27.02;33.28;100592.16;4394462;32;32201;-85
2022/06/18 07:12:01;;;;;;;2.47;1.80;;;;;;;27.18;34.57;100592.34;4395309;32;32531;-84
2022/06/18 07:14:35;;;;;;;3.15;1.87;;;;;;;27.23;33.42;100589.19;4400022;32;33450;-85
2022/06/18 07:17:16;;;;;;;2.10;1.58;;;;;;;27.11;33.87;100591.28;4392867;32;32846;-84
2022/06/18 07:19:50;;;;;;;1.92;1.75;;;;;;;27.31;33.85;100590.09;4395862;32;33038;-85
2022/06/18 07:22:25;;;;;;;3.33;1.85;;;;;;;26.97;32.74;100589.06;4402035;32;33928;-84
2022/06/18 07:24:54;;;;;;;3.87;1.80;;;;;;;27.38;32.77;100590.31;4419697;32;33316;-84
2022/06/18 07:27:24;;;;;;;2.47;2.03;;;;;;;27.48;33.18;100595.66;4396541;32;32500;-85
2022/06/18 07:29:53;;;;;;;3.58;1.65;;;;;;;27.41;31.95;100591.88;4395332;32;32354;-86
2022/06/18 07:32:32;;;;;;;1.80;1.67;;;;;;;27.28;32.21;100598.53;4406921;32;33629;-86
2022/06/18 07:35:17;;;;;;;1.80;1.50;;;;;;;27.75;34.90;100590.13;4405482;32;33024;-86
2022/06/18 07:37:46;;;;;;;1.48;1.37;;;;;;;27.56;31.80;100588.44;4396449;32;33631;-86
2022/06/18 07:43:00;;;;;;;2.75;1.77;;;;;;;28.00;32.25;100593.84;4397198;32;33940;-86
2022/06/18 07:45:29;;;;;;;3.30;1.65;;;;;;;27.83;31.23;100594.78;4389015;32;33480;-86
2022/06/18 07:47:57;;;;;;;1.58;1.40;;;;;;;27.23;31.78;100591.88;4384859;32;34160;-86
2022/06/18 07:50:26;;;;;;;3.47;1.50;;;;;;;27.56;33.21;100593.03;4406778;32;34359;-87
2022/06/18 07:53:01;;;;;;;1.62;1.30;;;;;;;27.83;30.87;100591.22;4411203;32;34180;-87
2022/06/18 08:00:01;;;;;;;1.42;1.33;;;;;;;27.35;31.23;100592.47;4306243;33;34196;-87
2022/06/18 08:02:42;;;;;;;4.32;1.35;;;;;;;27.94;30.80;100588.22;4288251;33;33025;-86
2022/06/18 08:05:19;;;;;;;1.10;1.00;;;;;;;27.94;32.24;100585.50;4310229;33;33579;-87
2022/06/18 08:07:48;;;;;;;1.87;1.20;;;;;;;28.36;31.88;100576.59;4311407;33;33767;-87
2022/06/18 08:10:37;;;;;;;3.22;1.33;;;;;;;28.57;33.60;100582.44;4296588;33;33880;-87
2022/06/18 08:13:05;;;;;;;2.58;1.20;;;;;;;28.31;30.59;100574.34;4298504;33;32507;-86
2022/06/18 08:15:49;;;;;;;3.55;1.62;;;;;;;28.45;33.22;100572.91;4302836;33;32887;-87
2022/06/18 08:18:18;;;;;;;5.25;1.40;;;;;;;28.77;34.14;100569.41;4300197;33;32919;-87
2022/06/18 08:21:10;;;;;;;3.10;1.27;;;;;;;28.84;30.40;100568.59;4297948;33;33988;-88
2022/06/18 08:23:40;;;;;;;2.62;1.30;;;;;;;28.69;29.48;100566.72;4310375;33;33111;-87
2022/06/18 08:26:10;;;;;;;4.55;1.45;;;;;;;28.88;30.59;100560.13;4308428;33;33563;-85
2022/06/18 08:28:40;;;;;;;4.43;1.52;;;;;;;28.71;31.79;100570.09;4302957;33;32635;-85
2022/06/18 08:31:10;;;;;;;3.33;1.15;;;;;;;28.97;29.15;100560.00;4295217;33;33609;-86
2022/06/18 08:33:40;;;;;;;4.70;1.27;;;;;;;28.27;29.05;100556.66;4290894;33;32617;-86
2022/06/18 08:43:33;;;;;;;6.25;2.20;;;;;;;28.14;32.89;100567.97;4307052;33;31650;-86
2022/06/18 08:46:46;;;;;;;1.12;1.02;;;;;;;27.64;31.26;100559.69;4320077;33;33913;-85
2022/06/18 08:49:29;;;;;;;1.23;0.77;;;;;;;27.78;32.12;100551.00;4249721;33;33155;-85
2022/06/18 08:52:08;;;;;;;1.60;0.93;;;;;;;27.98;28.45;100552.47;4320976;33;34469;-85
2022/06/18 08:55:10;;;;;;;2.62;1.20;;;;;;;28.03;30.37;100541.97;4311411;33;33374;-85
2022/06/18 08:58:08;;;;;;;2.15;1.20;;;;;;;28.87;29.53;100542.97;4323996;33;33473;-84
2022/06/18 09:00:57;;;;;;;4.80;1.27;;;;;;;29.09;29.04;100539.59;4309721;33;33257;-84
2022/06/18 09:03:51;;;;;;;2.03;1.20;;;;;;;29.28;29.61;100541.13;4311083;33;33171;-84
2022/06/18 09:09:17;;;;;;;1.70;1.20;;;;;;;29.51;28.22;100535.00;4322461;33;32121;-84
2022/06/18 09:12:30;;;;;;;3.12;1.23;;;;;;;29.36;29.30;100532.13;4499208;31;308543;-85
2022/06/18 09:17:55;;;;;;;2.35;0.90;;;;;;;28.44;31.24;100531.31;4508255;31;36248;-85
2022/06/18 09:20:43;;;;;;;1.85;0.60;;;;;;;29.09;30.81;100525.16;4486616;31;32875;-85
2022/06/18 09:23:38;;;;;;;1.65;1.00;;;;;;;29.59;26.33;100516.00;4478078;31;32013;-84
2022/06/18 09:26:22;;;;;;;1.73;1.08;;;;;;;29.36;30.40;100518.53;4496654;31;33137;-87
2022/06/18 09:29:03;;;;;;;1.40;0.62;;;;;;;29.65;25.39;100514.44;4477721;31;33281;-86
2022/06/18 09:31:36;;;;;;;1.70;1.12;;;;;;;29.19;26.40;100525.84;4476424;31;33691;-87
2022/06/18 09:34:13;;;;;;;4.55;1.65;;;;;;;29.57;27.52;100523.47;4497875;31;33927;-85
2022/06/18 09:36:46;;;;;;;1.90;1.00;;;;;;;29.48;27.11;100517.19;4501080;31;33175;-86
2022/06/18 09:39:22;;;;;;;3.12;1.00;;;;;;;29.40;27.73;100513.59;4487855;31;34244;-86
2022/06/18 09:42:33;;;;;;;1.52;0.93;;;;;;;29.65;26.74;100501.69;4502006;31;33440;-85
2022/06/18 09:45:08;;;;;;;1.92;0.95;;;;;;;29.95;25.83;100501.94;4477027;31;33539;-86
2022/06/18 09:47:46;;;;;;;1.40;0.70;;;;;;;29.98;25.23;100507.03;4504665;31;34152;-86
2022/06/18 09:50:50;;;;;;;2.25;0.75;;;;;;;29.84;26.62;100503.16;4488185;31;34658;-86
2022/06/18 09:53:27;;;;;;;1.20;0.90;;;;;;;29.65;26.83;100506.28;4486513;31;34147;-86
2022/06/18 09:56:16;;;;;;;4.03;0.80;;;;;;;29.74;28.26;100497.91;4503105;31;33778;-87
2022/06/18 09:58:51;;;;;;;1.20;0.77;;;;;;;29.70;28.27;100496.56;4484926;31;33531;-86
2022/06/18 10:01:29;;;;;;;2.30;1.05;;;;;;;29.70;28.15;100503.88;4489738;31;32991;-86
2022/06/18 10:06:53;;;;;;;1.05;0.90;;;;;;;29.37;28.29;100500.34;4494295;31;32301;-86
2022/06/18 10:09:43;;;;;;;0.68;0.68;;;;;;;29.31;28.00;100497.28;4487867;31;33029;-86
2022/06/18 10:12:27;;;;;;;0.70;0.70;;;;;;;29.68;27.49;100489.62;4486669;31;34143;-86
2022/06/18 10:14:58;;;;;;;2.45;1.00;;;;;;;29.82;26.40;100484.28;4493328;31;33193;-86
2022/06/18 10:17:52;;;;;;;1.60;1.00;;;;;;;29.82;26.18;100483.44;4501391;31;33527;-86
2022/06/18 10:20:30;;;;;;;1.75;0.73;;;;;;;29.71;26.75;100479.19;4499436;31;33964;-87
2022/06/18 10:23:36;;;;;;;1.33;0.90;;;;;;;29.57;26.15;100471.75;4489320;31;33372;-87
2022/06/18 10:29:54;;;;;;;4.00;1.10;;;;;;;29.70;28.55;100458.47;4416476;32;33169;-87
2022/06/18 10:32:53;;;;;;;1.77;0.95;;;;;;;30.14;26.83;100462.56;4483764;31;32802;-86
2022/06/18 10:35:40;;;;;;;0.70;0.70;;;;;;;30.40;26.32;100456.81;4496180;31;36546;-87
2022/06/18 10:38:31;;;;;;;2.45;0.75;;;;;;;30.55;26.14;100457.72;4475705;31;34234;-87
2022/06/18 10:41:25;;;;;;;1.65;0.68;;;;;;;30.09;25.45;100449.44;4495368;31;34335;-87
2022/06/18 10:43:59;;;;;;;1.27;1.08;;;;;;;29.93;28.20;100454.97;4475727;31;31712;-87
2022/06/18 10:46:27;;;;;;;2.72;0.90;;;;;;;30.26;26.63;100455.72;4481110;31;32630;-87
2022/06/18 10:48:59;;;;;;;1.80;0.77;;;;;;;30.44;26.74;100449.97;4475756;31;34425;-87
2022/06/18 10:51:33;;;;;;;0.70;0.60;;;;;;;30.41;25.52;100453.06;4480646;31;32495;-86
2022/06/18 10:54:02;;;;;;;1.50;0.88;;;;;;;30.81;26.99;100444.63;4492199;31;33021;-87
2022/06/18 10:56:43;;;;;;;2.65;0.80;;;;;;;31.13;28.68;100434.44;4484214;31;33880;-86
2022/06/18 10:59:11;;;;;;;1.95;0.80;;;;;;;31.30;24.96;100443.38;4477492;31;34812;-86
2022/06/18 11:01:46;;;;;;;3.08;0.57;;;;;;;30.71;28.36;100438.56;4483536;31;33575;-86
2022/06/18 11:04:24;;;;;;;1.37;0.90;;;;;;;31.32;24.49;100439.41;4478414;31;33342;-87
2022/06/18 11:06:57;;;;;;;1.37;0.52;;;;;;;31.44;24.51;100442.53;4476082;31;34182;-87
2022/06/18 11:09:47;;;;;;;1.17;0.82;;;;;;;31.23;26.04;100432.28;4478781;31;33562;-87
2022/06/18 11:12:27;;;;;;;2.60;0.93;;;;;;;30.71;27.23;100441.28;4458557;31;32982;-86
2022/06/18 11:14:59;;;;;;;1.27;0.85;;;;;;;30.73;25.17;100433.78;4483155;31;32398;-86
2022/06/18 11:17:32;;;;;;;1.17;1.08;;;;;;;31.33;25.34;100435.66;4478813;31;33650;-86
2022/06/18 11:20:28;;;;;;;1.48;1.02;;;;;;;31.45;24.03;100430.56;4475757;31;33307;-86
2022/06/18 11:25:51;;;;;;;4.82;1.25;;;;;;;31.60;25.18;100408.75;4490009;31;33055;-85
2022/06/18 11:28:46;;;;;;;89.47;10.73;;;;;;;31.48;25.26;100408.38;4476730;31;33114;-86
2022/06/18 11:31:27;;;;;;;3.08;1.20;;;;;;;30.91;23.88;100403.47;4475460;31;32920;-86
2022/06/18 11:34:00;;;;;;;1.83;0.90;;;;;;;31.11;25.23;100390.16;4487976;31;34107;-87
2022/06/18 11:36:51;;;;;;;10.45;1.65;;;;;;;31.10;25.59;100394.78;4491073;31;33007;-86
2022/06/18 11:39:27;;;;;;;0.82;0.75;;;;;;;30.80;25.82;100391.12;4479769;31;34192;-86
2022/06/18 11:42:02;;;;;;;1.12;0.80;;;;;;;30.32;26.65;100387.72;4478494;31;33989;-87
2022/06/18 11:45:05;;;;;;;1.40;1.30;;;;;;;30.82;26.94;100386.34;4481511;31;33041;-87
2022/06/18 11:47:43;;;;;;;2.25;1.02;;;;;;;31.41;23.49;100376.56;4474963;31;32630;-87
2022/06/18 11:50:30;;;;;;;1.50;0.93;;;;;;;31.43;25.17;100371.75;4475591;31;32915;-86
2022/06/18 11:53:16;;;;;;;2.58;0.90;;;;;;;31.02;25.40;100373.03;4489225;31;33355;-86
2022/06/18 11:55:48;;;;;;;3.42;0.80;;;;;;;31.19;25.41;100370.94;4487690;31;32529;-86
2022/06/18 11:58:36;;;;;;;1.33;1.00;;;;;;;31.46;25.36;100357.72;4474421;31;33297;-86
2022/06/18 12:01:25;;;;;;;2.47;0.90;;;;;;;31.57;23.31;100359.97;4482758;31;33294;-87
2022/06/18 12:04:12;;;;;;;1.67;0.95;;;;;;;31.71;24.40;100361.84;4465815;31;33570;-86
2022/06/18 12:06:52;;;;;;;1.65;1.08;;;;;;;31.15;23.75;100353.28;4477072;31;32428;-87
2022/06/18 12:09:29;;;;;;;2.37;1.02;;;;;;;31.06;24.35;100357.12;4487147;31;32075;-85
2022/06/18 12:12:19;;;;;;;2.70;0.85;;;;;;;30.89;24.64;100358.31;4476622;32;33444;-85
2022/06/18 12:14:51;;;;;;;1.20;1.02;;;;;;;31.03;25.54;100352.03;4487711;31;34027;-85
2022/06/18 12:17:31;;;;;;;3.50;1.30;;;;;;;31.61;24.82;100353.09;4489957;31;34178;-84
2022/06/18 12:20:15;;;;;;;1.05;0.80;;;;;;;31.91;24.60;100339.44;4498271;31;33328;-84
2022/06/18 12:23:00;;;;;;;1.37;0.80;;;;;;;32.25;24.60;100331.41;4498155;31;34275;-88
2022/06/18 12:25:36;;;;;;;4.20;1.00;;;;;;;32.06;24.07;100340.25;4500663;31;33219;-88
2022/06/18 12:28:17;;;;;;;0.73;0.73;;;;;;;31.86;24.10;100338.13;4487780;31;31957;-88
2022/06/18 12:31:00;;;;;;;1.30;0.88;;;;;;;31.85;23.92;100341.87;4487882;31;33254;-87
2022/06/18 12:33:28;;;;;;;;;;;;;;;31.57;23.73;100328.09;4474990;31;32709;-89
2022/06/18 12:36:39;;;;;;;3.45;0.98;;;;;;;31.84;23.49;100328.44;4487869;31;33079;-89
2022/06/18 12:39:46;;;;;;;1.75;1.00;;;;;;;30.77;26.39;100334.25;4500278;31;32864;-89
2022/06/18 12:42:32;;;;;;;2.05;1.15;;;;;;;31.70;26.10;100327.38;4478205;31;32928;-85
2022/06/18 12:45:03;;;;;;;1.27;0.70;;;;;;;31.82;22.90;100325.91;4489755;31;34566;-85
2022/06/18 12:47:47;;;;;;;1.48;0.82;;;;;;;32.06;23.64;100326.56;4491555;31;33835;-86
2022/06/18 12:50:57;;;;;;;1.73;0.98;;;;;;;32.29;22.41;100323.66;4472401;31;33488;-83
2022/06/18 12:53:34;;;;;;;0.82;0.82;;;;;;;32.08;23.29;100327.22;4488872;31;33669;-84
2022/06/18 12:56:25;;;;;;;0.80;0.60;;;;;;;32.02;22.84;100314.34;4484580;31;32577;-84
2022/06/18 12:59:18;;;;;;;0.80;0.80;;;;;;;31.81;24.69;100318.72;4489501;31;34706;-85
2022/06/18 13:02:03;;;;;;;1.55;0.75;;;;;;;32.26;22.99;100307.66;4487122;31;33346;-84
2022/06/18 13:05:13;;;;;;;1.90;1.15;;;;;;;32.32;24.56;100304.13;4493454;31;33714;-84